sensor_id;sensor_type;location;lat;lon;timestamp;temperature;humidity
12049;DHT22;6085;49.452;8.502;2023-11-18T00:03:29;5.90;99.90
12049;DHT22;6085;49.452;8.502;2023-11-18T00:07:32;6.00;99.90
12049;DHT22;6085;49.452;8.502;2023-11-18T00:11:34;5.90;99.90
12049;DHT22;6085;49.452;8.502;2023-11-18T00:15:36;6.00;99.90
12049;DHT22;6085;49.452;8.502;2023-11-18T00:19:38;5.90;99.90
12049;DHT22;6085;49.452;8.502;2023-11-18T00:23:41;5.90;99.90
12049;DHT22;6085;49.452;8.502;2023-11-18T00:27:43;5.90;99.90
12049;DHT22;6085;49.452;8.502;2023-11-18T00:31:45;5.80;99.90
12049;DHT22;6085;49.452;8.502;2023-11-18T00:35:47;5.70;99.90
12049;DHT22;6085;49.452;8.502;2023-11-18T00:39:50;5.60;99.90
12049;DHT22;6085;49.452;8.502;2023-11-18T00:43:52;5.40;99.90
12049;DHT22;6085;49.452;8.502;2023-11-18T00:47:54;5.40;99.90
12049;DHT22;6085;49.452;8.502;2023-11-18T00:51:56;5.40;99.90
12049;DHT22;6085;49.452;8.502;2023-11-18T00:55:59;5.40;99.90
12049;DHT22;6085;49.452;8.502;2023-11-18T01:00:02;5.40;99.90
12049;DHT22;6085;49.452;8.502;2023-11-18T01:04:04;5.30;99.90
12049;DHT22;6085;49.452;8.502;2023-11-18T01:08:06;5.20;99.90
12049;DHT22;6085;49.452;8.502;2023-11-18T01:12:10;5.10;99.90
12049;DHT22;6085;49.452;8.502;2023-11-18T01:16:12;4.90;99.90
12049;DHT22;6085;49.452;8.502;2023-11-18T01:20:15;4.80;99.90
12049;DHT22;6085;49.452;8.502;2023-11-18T01:24:22;4.70;99.90
12049;DHT22;6085;49.452;8.502;2023-11-18T01:28:25;4.70;99.90
12049;DHT22;6085;49.452;8.502;2023-11-18T01:32:30;4.60;99.90
12049;DHT22;6085;49.452;8.502;2023-11-18T01:36:32;4.50;99.90
12049;DHT22;6085;49.452;8.502;2023-11-18T01:40:33;4.50;99.90
12049;DHT22;6085;49.452;8.502;2023-11-18T01:44:37;4.40;99.90
12049;DHT22;6085;49.452;8.502;2023-11-18T01:48:39;4.40;99.90
12049;DHT22;6085;49.452;8.502;2023-11-18T01:52:42;4.40;99.90
12049;DHT22;6085;49.452;8.502;2023-11-18T01:56:46;4.40;99.90
12049;DHT22;6085;49.452;8.502;2023-11-18T02:00:50;4.30;99.90
12049;DHT22;6085;49.452;8.502;2023-11-18T02:04:52;4.20;99.90
12049;DHT22;6085;49.452;8.502;2023-11-18T02:08:56;4.10;99.90
12049;DHT22;6085;49.452;8.502;2023-11-18T02:13:06;4.00;99.90
12049;DHT22;6085;49.452;8.502;2023-11-18T02:17:14;3.90;99.90
12049;DHT22;6085;49.452;8.502;2023-11-18T02:21:16;3.70;99.90
12049;DHT22;6085;49.452;8.502;2023-11-18T02:25:18;3.60;99.90
12049;DHT22;6085;49.452;8.502;2023-11-18T02:29:23;3.60;99.90
12049;DHT22;6085;49.452;8.502;2023-11-18T02:33:33;3.50;99.90
12049;DHT22;6085;49.452;8.502;2023-11-18T02:37:36;3.40;99.90
12049;DHT22;6085;49.452;8.502;2023-11-18T02:41:39;3.30;99.90
12049;DHT22;6085;49.452;8.502;2023-11-18T02:45:48;3.30;99.90
12049;DHT22;6085;49.452;8.502;2023-11-18T02:49:54;3.30;99.90
12049;DHT22;6085;49.452;8.502;2023-11-18T02:53:56;3.40;99.90
12049;DHT22;6085;49.452;8.502;2023-11-18T02:57:58;3.60;99.90
12049;DHT22;6085;49.452;8.502;2023-11-18T03:02:01;3.70;99.90
12049;DHT22;6085;49.452;8.502;2023-11-18T03:06:04;3.80;99.90
12049;DHT22;6085;49.452;8.502;2023-11-18T03:10:07;3.90;99.90
12049;DHT22;6085;49.452;8.502;2023-11-18T03:14:13;3.90;99.90
12049;DHT22;6085;49.452;8.502;2023-11-18T03:18:16;3.90;99.90
12049;DHT22;6085;49.452;8.502;2023-11-18T03:22:18;3.80;99.90
12049;DHT22;6085;49.452;8.502;2023-11-18T03:26:22;3.70;99.90
12049;DHT22;6085;49.452;8.502;2023-11-18T03:30:24;3.50;99.90
12049;DHT22;6085;49.452;8.502;2023-11-18T03:34:27;3.50;99.90
12049;DHT22;6085;49.452;8.502;2023-11-18T03:38:29;3.40;99.90
12049;DHT22;6085;49.452;8.502;2023-11-18T03:42:34;3.50;99.90
12049;DHT22;6085;49.452;8.502;2023-11-18T03:46:37;3.70;99.90
12049;DHT22;6085;49.452;8.502;2023-11-18T03:50:41;3.90;99.90
12049;DHT22;6085;49.452;8.502;2023-11-18T03:54:44;4.10;99.90
12049;DHT22;6085;49.452;8.502;2023-11-18T03:58:46;4.20;99.90
12049;DHT22;6085;49.452;8.502;2023-11-18T04:02:48;4.30;99.90
12049;DHT22;6085;49.452;8.502;2023-11-18T04:06:52;4.40;99.90
12049;DHT22;6085;49.452;8.502;2023-11-18T04:10:53;4.50;99.90
12049;DHT22;6085;49.452;8.502;2023-11-18T04:14:55;4.60;99.90
12049;DHT22;6085;49.452;8.502;2023-11-18T04:18:57;4.60;99.90
12049;DHT22;6085;49.452;8.502;2023-11-18T04:23:00;4.60;99.90
12049;DHT22;6085;49.452;8.502;2023-11-18T04:27:02;4.60;99.90
12049;DHT22;6085;49.452;8.502;2023-11-18T04:31:04;4.60;99.90
12049;DHT22;6085;49.452;8.502;2023-11-18T04:35:07;4.60;99.90
12049;DHT22;6085;49.452;8.502;2023-11-18T04:39:13;4.60;99.90
12049;DHT22;6085;49.452;8.502;2023-11-18T04:43:16;4.50;99.90
12049;DHT22;6085;49.452;8.502;2023-11-18T04:47:18;4.50;99.90
12049;DHT22;6085;49.452;8.502;2023-11-18T04:51:20;4.40;99.90
12049;DHT22;6085;49.452;8.502;2023-11-18T04:55:23;4.50;99.90
12049;DHT22;6085;49.452;8.502;2023-11-18T04:59:26;4.50;99.90
12049;DHT22;6085;49.452;8.502;2023-11-18T05:03:28;4.60;99.90
12049;DHT22;6085;49.452;8.502;2023-11-18T05:07:31;4.60;99.90
12049;DHT22;6085;49.452;8.502;2023-11-18T05:11:34;4.80;99.90
12049;DHT22;6085;49.452;8.502;2023-11-18T05:15:36;4.80;99.90
12049;DHT22;6085;49.452;8.502;2023-11-18T05:19:38;4.90;99.90
12049;DHT22;6085;49.452;8.502;2023-11-18T05:23:40;4.90;99.90
12049;DHT22;6085;49.452;8.502;2023-11-18T05:27:43;4.90;99.90
12049;DHT22;6085;49.452;8.502;2023-11-18T05:31:45;4.80;99.90
12049;DHT22;6085;49.452;8.502;2023-11-18T05:35:47;4.80;99.90
12049;DHT22;6085;49.452;8.502;2023-11-18T05:39:50;4.80;99.90
12049;DHT22;6085;49.452;8.502;2023-11-18T05:44:01;4.90;99.90
12049;DHT22;6085;49.452;8.502;2023-11-18T05:48:02;5.00;99.90
12049;DHT22;6085;49.452;8.502;2023-11-18T05:52:05;5.10;99.90
12049;DHT22;6085;49.452;8.502;2023-11-18T05:56:07;5.10;99.90
12049;DHT22;6085;49.452;8.502;2023-11-18T06:00:12;5.10;99.90
12049;DHT22;6085;49.452;8.502;2023-11-18T06:04:15;5.10;99.90
12049;DHT22;6085;49.452;8.502;2023-11-18T06:08:17;5.20;99.90
12049;DHT22;6085;49.452;8.502;2023-11-18T06:12:19;5.20;99.90
12049;DHT22;6085;49.452;8.502;2023-11-18T06:16:24;5.20;99.90
12049;DHT22;6085;49.452;8.502;2023-11-18T06:20:26;5.20;99.90
12049;DHT22;6085;49.452;8.502;2023-11-18T06:24:28;5.20;99.90
12049;DHT22;6085;49.452;8.502;2023-11-18T06:28:30;5.30;99.90
12049;DHT22;6085;49.452;8.502;2023-11-18T06:32:34;5.30;99.90
12049;DHT22;6085;49.452;8.502;2023-11-18T06:36:38;5.40;99.90
12049;DHT22;6085;49.452;8.502;2023-11-18T06:40:41;5.40;99.90
12049;DHT22;6085;49.452;8.502;2023-11-18T06:44:43;5.50;99.90
12049;DHT22;6085;49.452;8.502;2023-11-18T06:48:46;5.50;99.90
12049;DHT22;6085;49.452;8.502;2023-11-18T06:52:49;5.60;99.90
12049;DHT22;6085;49.452;8.502;2023-11-18T06:56:51;5.60;99.90
12049;DHT22;6085;49.452;8.502;2023-11-18T07:00:53;5.60;99.90
12049;DHT22;6085;49.452;8.502;2023-11-18T07:04:57;5.70;99.90
12049;DHT22;6085;49.452;8.502;2023-11-18T07:08:59;5.70;99.90
12049;DHT22;6085;49.452;8.502;2023-11-18T07:13:01;5.70;99.90
12049;DHT22;6085;49.452;8.502;2023-11-18T07:17:03;5.70;99.90
12049;DHT22;6085;49.452;8.502;2023-11-18T07:21:07;5.80;99.90
12049;DHT22;6085;49.452;8.502;2023-11-18T07:25:10;5.80;99.90
12049;DHT22;6085;49.452;8.502;2023-11-18T07:29:12;5.90;99.90
12049;DHT22;6085;49.452;8.502;2023-11-18T07:33:14;5.90;99.90
12049;DHT22;6085;49.452;8.502;2023-11-18T07:37:17;5.90;99.90
12049;DHT22;6085;49.452;8.502;2023-11-18T07:41:21;6.00;99.90
12049;DHT22;6085;49.452;8.502;2023-11-18T07:45:25;6.00;99.90
12049;DHT22;6085;49.452;8.502;2023-11-18T07:49:27;6.10;99.90
12049;DHT22;6085;49.452;8.502;2023-11-18T07:53:31;6.20;99.90
12049;DHT22;6085;49.452;8.502;2023-11-18T07:57:32;6.20;99.90
12049;DHT22;6085;49.452;8.502;2023-11-18T08:01:36;6.20;99.90
12049;DHT22;6085;49.452;8.502;2023-11-18T08:05:45;6.20;99.90
12049;DHT22;6085;49.452;8.502;2023-11-18T08:09:50;6.30;99.90
12049;DHT22;6085;49.452;8.502;2023-11-18T08:13:52;6.40;99.90
12049;DHT22;6085;49.452;8.502;2023-11-18T08:17:54;6.40;99.90
12049;DHT22;6085;49.452;8.502;2023-11-18T08:21:56;6.50;99.90
12049;DHT22;6085;49.452;8.502;2023-11-18T08:26:00;6.40;99.90
12049;DHT22;6085;49.452;8.502;2023-11-18T08:30:02;6.50;99.90
12049;DHT22;6085;49.452;8.502;2023-11-18T08:34:06;6.70;99.90
12049;DHT22;6085;49.452;8.502;2023-11-18T08:38:10;6.90;99.90
12049;DHT22;6085;49.452;8.502;2023-11-18T08:42:14;7.20;99.90
12049;DHT22;6085;49.452;8.502;2023-11-18T08:46:17;7.40;99.90
12049;DHT22;6085;49.452;8.502;2023-11-18T08:50:19;7.40;99.90
12049;DHT22;6085;49.452;8.502;2023-11-18T08:54:24;7.60;99.90
12049;DHT22;6085;49.452;8.502;2023-11-18T08:58:38;7.80;99.90
12049;DHT22;6085;49.452;8.502;2023-11-18T09:02:40;8.10;99.90
12049;DHT22;6085;49.452;8.502;2023-11-18T09:06:44;8.30;99.90
12049;DHT22;6085;49.452;8.502;2023-11-18T09:10:48;8.50;99.90
12049;DHT22;6085;49.452;8.502;2023-11-18T09:14:55;8.60;99.90
12049;DHT22;6085;49.452;8.502;2023-11-18T09:18:58;8.70;99.90
12049;DHT22;6085;49.452;8.502;2023-11-18T09:23:00;8.60;99.90
12049;DHT22;6085;49.452;8.502;2023-11-18T09:27:02;8.70;99.90
12049;DHT22;6085;49.452;8.502;2023-11-18T09:31:08;8.70;99.90
12049;DHT22;6085;49.452;8.502;2023-11-18T09:35:12;8.90;99.90
12049;DHT22;6085;49.452;8.502;2023-11-18T09:39:14;9.10;99.90
12049;DHT22;6085;49.452;8.502;2023-11-18T09:43:30;9.20;99.90
12049;DHT22;6085;49.452;8.502;2023-11-18T09:47:36;9.40;99.90
12049;DHT22;6085;49.452;8.502;2023-11-18T09:51:42;9.30;99.90
12049;DHT22;6085;49.452;8.502;2023-11-18T09:55:52;9.30;99.90
12049;DHT22;6085;49.452;8.502;2023-11-18T10:00:02;9.20;99.90
12049;DHT22;6085;49.452;8.502;2023-11-18T10:04:21;9.30;99.90
12049;DHT22;6085;49.452;8.502;2023-11-18T10:08:28;9.20;99.90
12049;DHT22;6085;49.452;8.502;2023-11-18T10:12:31;9.00;99.90
12049;DHT22;6085;49.452;8.502;2023-11-18T10:16:33;9.00;99.90
12049;DHT22;6085;49.452;8.502;2023-11-18T10:20:46;8.90;99.90
12049;DHT22;6085;49.452;8.502;2023-11-18T10:24:48;8.90;99.90
12049;DHT22;6085;49.452;8.502;2023-11-18T10:28:52;8.80;99.90
12049;DHT22;6085;49.452;8.502;2023-11-18T10:32:58;8.70;99.90
12049;DHT22;6085;49.452;8.502;2023-11-18T10:37:07;8.70;99.90
12049;DHT22;6085;49.452;8.502;2023-11-18T10:41:11;8.70;99.90
12049;DHT22;6085;49.452;8.502;2023-11-18T10:45:23;8.80;99.90
12049;DHT22;6085;49.452;8.502;2023-11-18T10:49:26;8.80;99.90
12049;DHT22;6085;49.452;8.502;2023-11-18T10:53:31;8.80;99.90
12049;DHT22;6085;49.452;8.502;2023-11-18T10:57:34;8.80;99.90
12049;DHT22;6085;49.452;8.502;2023-11-18T11:01:37;9.10;99.90
12049;DHT22;6085;49.452;8.502;2023-11-18T11:05:42;9.30;99.90
12049;DHT22;6085;49.452;8.502;2023-11-18T11:09:46;9.40;99.90
12049;DHT22;6085;49.452;8.502;2023-11-18T11:13:50;9.40;99.90
12049;DHT22;6085;49.452;8.502;2023-11-18T11:18:00;9.50;99.90
12049;DHT22;6085;49.452;8.502;2023-11-18T11:22:10;9.50;99.90
12049;DHT22;6085;49.452;8.502;2023-11-18T11:26:24;9.50;99.90
12049;DHT22;6085;49.452;8.502;2023-11-18T11:30:36;9.50;99.90
12049;DHT22;6085;49.452;8.502;2023-11-18T11:34:50;9.60;99.90
12049;DHT22;6085;49.452;8.502;2023-11-18T11:38:54;9.70;99.90
12049;DHT22;6085;49.452;8.502;2023-11-18T11:42:58;9.60;99.90
12049;DHT22;6085;49.452;8.502;2023-11-18T11:47:05;9.60;99.90
12049;DHT22;6085;49.452;8.502;2023-11-18T11:51:16;9.50;99.90
12049;DHT22;6085;49.452;8.502;2023-11-18T11:55:26;9.30;99.90
12049;DHT22;6085;49.452;8.502;2023-11-18T11:59:54;9.20;99.90
12049;DHT22;6085;49.452;8.502;2023-11-18T12:03:57;9.10;99.90
12049;DHT22;6085;49.452;8.502;2023-11-18T12:08:01;9.00;99.90
12049;DHT22;6085;49.452;8.502;2023-11-18T12:12:16;9.00;99.90
12049;DHT22;6085;49.452;8.502;2023-11-18T12:16:21;9.00;99.90
12049;DHT22;6085;49.452;8.502;2023-11-18T12:20:41;8.90;99.90
12049;DHT22;6085;49.452;8.502;2023-11-18T12:29:44;8.80;99.90
12049;DHT22;6085;49.452;8.502;2023-11-18T12:34:01;8.80;99.90
12049;DHT22;6085;49.452;8.502;2023-11-18T12:38:30;8.70;99.90
12049;DHT22;6085;49.452;8.502;2023-11-18T12:42:59;8.60;99.90
12049;DHT22;6085;49.452;8.502;2023-11-18T12:47:05;8.60;99.90
12049;DHT22;6085;49.452;8.502;2023-11-18T12:51:16;8.50;99.90
12049;DHT22;6085;49.452;8.502;2023-11-18T12:55:21;8.60;99.90
12049;DHT22;6085;49.452;8.502;2023-11-18T12:59:23;8.70;99.90
12049;DHT22;6085;49.452;8.502;2023-11-18T13:03:25;8.70;99.90
12049;DHT22;6085;49.452;8.502;2023-11-18T13:07:28;8.70;99.90
12049;DHT22;6085;49.452;8.502;2023-11-18T13:11:30;8.80;99.90
12049;DHT22;6085;49.452;8.502;2023-11-18T13:15:32;8.90;99.90
12049;DHT22;6085;49.452;8.502;2023-11-18T13:19:35;9.00;99.90
12049;DHT22;6085;49.452;8.502;2023-11-18T13:23:38;9.00;99.90
12049;DHT22;6085;49.452;8.502;2023-11-18T13:27:40;8.90;99.90
12049;DHT22;6085;49.452;8.502;2023-11-18T13:31:42;8.90;99.90
12049;DHT22;6085;49.452;8.502;2023-11-18T13:35:45;8.90;99.90
12049;DHT22;6085;49.452;8.502;2023-11-18T13:39:54;9.00;99.90
12049;DHT22;6085;49.452;8.502;2023-11-18T13:43:56;9.00;99.90
12049;DHT22;6085;49.452;8.502;2023-11-18T13:48:00;9.00;99.90
12049;DHT22;6085;49.452;8.502;2023-11-18T13:52:03;9.00;99.90
12049;DHT22;6085;49.452;8.502;2023-11-18T13:56:09;8.90;99.90
12049;DHT22;6085;49.452;8.502;2023-11-18T14:00:12;8.90;99.90
12049;DHT22;6085;49.452;8.502;2023-11-18T14:04:16;8.90;99.90
12049;DHT22;6085;49.452;8.502;2023-11-18T14:08:18;8.90;99.90
12049;DHT22;6085;49.452;8.502;2023-11-18T14:12:22;8.80;99.90
12049;DHT22;6085;49.452;8.502;2023-11-18T14:16:26;8.80;99.90
12049;DHT22;6085;49.452;8.502;2023-11-18T14:20:28;8.70;99.90
12049;DHT22;6085;49.452;8.502;2023-11-18T14:24:31;8.70;99.90
12049;DHT22;6085;49.452;8.502;2023-11-18T14:28:35;8.60;99.90
12049;DHT22;6085;49.452;8.502;2023-11-18T14:32:37;8.60;99.90
12049;DHT22;6085;49.452;8.502;2023-11-18T14:36:41;8.60;99.90
12049;DHT22;6085;49.452;8.502;2023-11-18T14:40:43;8.60;99.90
12049;DHT22;6085;49.452;8.502;2023-11-18T14:44:46;8.50;99.90
12049;DHT22;6085;49.452;8.502;2023-11-18T14:48:49;8.50;99.90
12049;DHT22;6085;49.452;8.502;2023-11-18T14:52:52;8.50;99.90
12049;DHT22;6085;49.452;8.502;2023-11-18T14:57:00;8.40;99.90
12049;DHT22;6085;49.452;8.502;2023-11-18T15:01:03;8.40;99.90
12049;DHT22;6085;49.452;8.502;2023-11-18T15:05:07;8.40;99.90
12049;DHT22;6085;49.452;8.502;2023-11-18T15:09:10;8.40;99.90
12049;DHT22;6085;49.452;8.502;2023-11-18T15:13:12;8.40;99.90
12049;DHT22;6085;49.452;8.502;2023-11-18T15:17:17;8.30;99.90
12049;DHT22;6085;49.452;8.502;2023-11-18T15:21:18;8.30;99.90
12049;DHT22;6085;49.452;8.502;2023-11-18T15:25:21;8.20;99.90
12049;DHT22;6085;49.452;8.502;2023-11-18T15:29:22;8.20;99.90
12049;DHT22;6085;49.452;8.502;2023-11-18T15:33:33;8.10;99.90
12049;DHT22;6085;49.452;8.502;2023-11-18T15:37:36;8.10;99.90
12049;DHT22;6085;49.452;8.502;2023-11-18T15:41:38;8.10;99.90
12049;DHT22;6085;49.452;8.502;2023-11-18T15:45:41;8.00;99.90
12049;DHT22;6085;49.452;8.502;2023-11-18T15:49:46;8.00;99.90
12049;DHT22;6085;49.452;8.502;2023-11-18T15:53:48;8.00;99.90
12049;DHT22;6085;49.452;8.502;2023-11-18T15:57:52;7.90;99.90
12049;DHT22;6085;49.452;8.502;2023-11-18T16:01:54;7.80;99.90
12049;DHT22;6085;49.452;8.502;2023-11-18T16:05:57;7.70;99.90
12049;DHT22;6085;49.452;8.502;2023-11-18T16:09:59;7.70;99.90
12049;DHT22;6085;49.452;8.502;2023-11-18T16:14:03;7.70;99.90
12049;DHT22;6085;49.452;8.502;2023-11-18T16:18:06;7.70;99.90
12049;DHT22;6085;49.452;8.502;2023-11-18T16:22:10;7.70;99.90
12049;DHT22;6085;49.452;8.502;2023-11-18T16:26:11;7.70;99.90
12049;DHT22;6085;49.452;8.502;2023-11-18T16:30:14;7.70;99.90
12049;DHT22;6085;49.452;8.502;2023-11-18T16:34:17;7.70;99.90
12049;DHT22;6085;49.452;8.502;2023-11-18T16:38:22;7.70;99.90
12049;DHT22;6085;49.452;8.502;2023-11-18T16:42:24;7.70;99.90
12049;DHT22;6085;49.452;8.502;2023-11-18T16:46:28;7.60;99.90
12049;DHT22;6085;49.452;8.502;2023-11-18T16:50:31;7.60;99.90
12049;DHT22;6085;49.452;8.502;2023-11-18T16:54:34;7.60;99.90
12049;DHT22;6085;49.452;8.502;2023-11-18T16:58:36;7.50;99.90
12049;DHT22;6085;49.452;8.502;2023-11-18T17:02:40;7.40;99.90
12049;DHT22;6085;49.452;8.502;2023-11-18T17:06:42;7.40;99.90
12049;DHT22;6085;49.452;8.502;2023-11-18T17:10:46;7.40;99.90
12049;DHT22;6085;49.452;8.502;2023-11-18T17:14:53;7.40;99.90
12049;DHT22;6085;49.452;8.502;2023-11-18T17:18:56;7.30;99.90
12049;DHT22;6085;49.452;8.502;2023-11-18T17:22:57;7.30;99.90
12049;DHT22;6085;49.452;8.502;2023-11-18T17:27:01;7.30;99.90
12049;DHT22;6085;49.452;8.502;2023-11-18T17:31:04;7.30;99.90
12049;DHT22;6085;49.452;8.502;2023-11-18T17:35:08;7.30;99.90
12049;DHT22;6085;49.452;8.502;2023-11-18T17:39:11;7.30;99.90
12049;DHT22;6085;49.452;8.502;2023-11-18T17:43:16;7.20;99.90
12049;DHT22;6085;49.452;8.502;2023-11-18T17:47:18;7.20;99.90
12049;DHT22;6085;49.452;8.502;2023-11-18T17:51:20;7.20;99.90
12049;DHT22;6085;49.452;8.502;2023-11-18T17:55:23;7.20;99.90
12049;DHT22;6085;49.452;8.502;2023-11-18T17:59:29;7.20;99.90
12049;DHT22;6085;49.452;8.502;2023-11-18T18:03:31;7.20;99.90
12049;DHT22;6085;49.452;8.502;2023-11-18T18:07:33;7.20;99.90
12049;DHT22;6085;49.452;8.502;2023-11-18T18:11:35;7.20;99.90
12049;DHT22;6085;49.452;8.502;2023-11-18T18:15:38;7.20;99.90
12049;DHT22;6085;49.452;8.502;2023-11-18T18:19:40;7.20;99.90
12049;DHT22;6085;49.452;8.502;2023-11-18T18:23:41;7.20;99.90
12049;DHT22;6085;49.452;8.502;2023-11-18T18:27:44;7.10;99.90
12049;DHT22;6085;49.452;8.502;2023-11-18T18:31:47;7.10;99.90
12049;DHT22;6085;49.452;8.502;2023-11-18T18:35:49;7.10;99.90
12049;DHT22;6085;49.452;8.502;2023-11-18T18:39:51;7.10;99.90
12049;DHT22;6085;49.452;8.502;2023-11-18T18:43:53;7.10;99.90
12049;DHT22;6085;49.452;8.502;2023-11-18T18:47:57;7.10;99.90
12049;DHT22;6085;49.452;8.502;2023-11-18T18:51:59;7.10;99.90
12049;DHT22;6085;49.452;8.502;2023-11-18T18:56:01;7.10;99.90
12049;DHT22;6085;49.452;8.502;2023-11-18T19:00:06;7.10;99.90
12049;DHT22;6085;49.452;8.502;2023-11-18T19:04:13;7.10;99.90
12049;DHT22;6085;49.452;8.502;2023-11-18T19:08:15;7.10;99.90
12049;DHT22;6085;49.452;8.502;2023-11-18T19:12:17;7.10;99.90
12049;DHT22;6085;49.452;8.502;2023-11-18T19:16:19;7.10;99.90
12049;DHT22;6085;49.452;8.502;2023-11-18T19:20:22;7.10;99.90
12049;DHT22;6085;49.452;8.502;2023-11-18T19:24:25;7.10;99.90
12049;DHT22;6085;49.452;8.502;2023-11-18T19:28:27;7.10;99.90
12049;DHT22;6085;49.452;8.502;2023-11-18T19:32:29;7.10;99.90
12049;DHT22;6085;49.452;8.502;2023-11-18T19:36:32;7.10;99.90
12049;DHT22;6085;49.452;8.502;2023-11-18T19:40:35;7.10;99.90
12049;DHT22;6085;49.452;8.502;2023-11-18T19:44:37;7.10;99.90
12049;DHT22;6085;49.452;8.502;2023-11-18T19:48:39;7.10;99.90
12049;DHT22;6085;49.452;8.502;2023-11-18T19:52:42;7.10;99.90
12049;DHT22;6085;49.452;8.502;2023-11-18T19:56:44;7.20;99.90
12049;DHT22;6085;49.452;8.502;2023-11-18T20:00:45;7.30;99.90
12049;DHT22;6085;49.452;8.502;2023-11-18T20:04:47;7.40;99.90
12049;DHT22;6085;49.452;8.502;2023-11-18T20:08:50;7.40;99.90
12049;DHT22;6085;49.452;8.502;2023-11-18T20:12:52;7.50;99.90
12049;DHT22;6085;49.452;8.502;2023-11-18T20:16:55;7.50;99.90
12049;DHT22;6085;49.452;8.502;2023-11-18T20:20:56;7.60;99.90
12049;DHT22;6085;49.452;8.502;2023-11-18T20:25:00;7.70;99.90
12049;DHT22;6085;49.452;8.502;2023-11-18T20:29:02;7.70;99.90
12049;DHT22;6085;49.452;8.502;2023-11-18T20:33:03;7.80;99.90
12049;DHT22;6085;49.452;8.502;2023-11-18T20:37:05;7.80;99.90
12049;DHT22;6085;49.452;8.502;2023-11-18T20:41:09;7.80;99.90
12049;DHT22;6085;49.452;8.502;2023-11-18T20:45:14;7.80;99.90
12049;DHT22;6085;49.452;8.502;2023-11-18T20:49:18;7.90;99.90
12049;DHT22;6085;49.452;8.502;2023-11-18T20:53:21;7.90;99.90
12049;DHT22;6085;49.452;8.502;2023-11-18T20:57:24;7.90;99.90
12049;DHT22;6085;49.452;8.502;2023-11-18T21:01:26;7.90;99.90
12049;DHT22;6085;49.452;8.502;2023-11-18T21:05:28;7.90;99.90
12049;DHT22;6085;49.452;8.502;2023-11-18T21:09:30;8.00;99.90
12049;DHT22;6085;49.452;8.502;2023-11-18T21:13:33;8.00;99.90
12049;DHT22;6085;49.452;8.502;2023-11-18T21:17:39;8.00;99.90
12049;DHT22;6085;49.452;8.502;2023-11-18T21:21:41;8.00;99.90
12049;DHT22;6085;49.452;8.502;2023-11-18T21:25:44;8.00;99.90
12049;DHT22;6085;49.452;8.502;2023-11-18T21:29:47;8.00;99.90
12049;DHT22;6085;49.452;8.502;2023-11-18T21:33:49;8.00;99.90
12049;DHT22;6085;49.452;8.502;2023-11-18T21:37:51;8.00;99.90
12049;DHT22;6085;49.452;8.502;2023-11-18T21:41:53;7.90;99.90
12049;DHT22;6085;49.452;8.502;2023-11-18T21:45:56;7.90;99.90
12049;DHT22;6085;49.452;8.502;2023-11-18T21:49:58;7.80;99.90
12049;DHT22;6085;49.452;8.502;2023-11-18T21:54:00;7.90;99.90
12049;DHT22;6085;49.452;8.502;2023-11-18T21:58:02;7.90;99.90
12049;DHT22;6085;49.452;8.502;2023-11-18T22:02:06;7.90;99.90
12049;DHT22;6085;49.452;8.502;2023-11-18T22:06:09;7.90;99.90
12049;DHT22;6085;49.452;8.502;2023-11-18T22:10:12;7.90;99.90
12049;DHT22;6085;49.452;8.502;2023-11-18T22:14:17;7.90;99.90
12049;DHT22;6085;49.452;8.502;2023-11-18T22:18:20;7.90;99.90
12049;DHT22;6085;49.452;8.502;2023-11-18T22:22:23;7.90;99.90
12049;DHT22;6085;49.452;8.502;2023-11-18T22:26:25;7.90;99.90
12049;DHT22;6085;49.452;8.502;2023-11-18T22:30:27;8.00;99.90
12049;DHT22;6085;49.452;8.502;2023-11-18T22:34:33;8.00;99.90
12049;DHT22;6085;49.452;8.502;2023-11-18T22:38:35;8.10;99.90
12049;DHT22;6085;49.452;8.502;2023-11-18T22:42:38;8.10;99.90
12049;DHT22;6085;49.452;8.502;2023-11-18T22:46:43;8.10;99.90
12049;DHT22;6085;49.452;8.502;2023-11-18T22:50:46;8.10;99.90
12049;DHT22;6085;49.452;8.502;2023-11-18T22:54:48;8.10;99.90
12049;DHT22;6085;49.452;8.502;2023-11-18T22:58:50;8.10;99.90
12049;DHT22;6085;49.452;8.502;2023-11-18T23:02:53;8.10;99.90
12049;DHT22;6085;49.452;8.502;2023-11-18T23:06:56;8.00;99.90
12049;DHT22;6085;49.452;8.502;2023-11-18T23:10:58;8.10;99.90
12049;DHT22;6085;49.452;8.502;2023-11-18T23:15:01;8.10;99.90
12049;DHT22;6085;49.452;8.502;2023-11-18T23:19:03;8.10;99.90
12049;DHT22;6085;49.452;8.502;2023-11-18T23:23:11;8.10;99.90
12049;DHT22;6085;49.452;8.502;2023-11-18T23:27:13;8.10;99.90
12049;DHT22;6085;49.452;8.502;2023-11-18T23:31:15;8.10;99.90
12049;DHT22;6085;49.452;8.502;2023-11-18T23:35:18;8.20;99.90
12049;DHT22;6085;49.452;8.502;2023-11-18T23:39:22;8.20;99.90
12049;DHT22;6085;49.452;8.502;2023-11-18T23:43:26;8.20;99.90
12049;DHT22;6085;49.452;8.502;2023-11-18T23:47:29;8.20;99.90
12049;DHT22;6085;49.452;8.502;2023-11-18T23:51:31;8.20;99.90
12049;DHT22;6085;49.452;8.502;2023-11-18T23:55:34;8.20;99.90
12049;DHT22;6085;49.452;8.502;2023-11-18T23:59:36;8.20;99.90
